createdAt,value
2023-04-22T00:00:44.291Z,97544.72
2023-04-22T00:03:47.451Z,97543.34
2023-04-22T00:06:52.156Z,97546.94
2023-04-22T00:09:54.937Z,97549.84
2023-04-22T00:12:57.758Z,97540.16
2023-04-22T00:16:00.634Z,97546.84
2023-04-22T00:19:03.593Z,97538.47
2023-04-22T00:22:07.820Z,97550.22
2023-04-22T00:25:10.795Z,97547.91
2023-04-22T00:28:13.527Z,97541.47
2023-04-22T00:31:16.421Z,97545.22
2023-04-22T00:34:19.707Z,97539.78
2023-04-22T00:37:24.533Z,97545.97
2023-04-22T00:40:27.212Z,97545.66
2023-04-22T00:43:29.932Z,97533.09
2023-04-22T00:46:35.387Z,97542.56
2023-04-22T00:49:38.575Z,97545.16
2023-04-22T00:52:42.947Z,97546.38
2023-04-22T00:55:45.683Z,97544.28
2023-04-22T00:58:48.426Z,97549.75
2023-04-22T01:01:51.775Z,97549.38
2023-04-22T01:04:55.182Z,97540.91
2023-04-22T01:07:59.835Z,97542.50
2023-04-22T01:11:03.795Z,97545.28
2023-04-22T01:14:06.636Z,97541.50
2023-04-22T01:17:10.995Z,97539.63
2023-04-22T01:20:14.062Z,97542.09
2023-04-22T01:23:20.540Z,97536.72
2023-04-22T01:26:23.431Z,97533.94
2023-04-22T01:29:26.740Z,97534.44
2023-04-22T01:32:30.850Z,97534.81
2023-04-22T01:35:36.837Z,97541.41
2023-04-22T01:38:41.240Z,97529.88
2023-04-22T01:41:44.013Z,97533.13
2023-04-22T01:44:46.782Z,97536.63
2023-04-22T01:47:49.452Z,97546.69
2023-04-22T01:50:52.411Z,97537.41
2023-04-22T01:53:56.489Z,97545.97
2023-04-22T01:56:59.437Z,97544.47
2023-04-22T02:00:02.431Z,97540.31
2023-04-22T02:03:05.228Z,97542.28
2023-04-22T02:06:08.721Z,97549.06
2023-04-22T02:09:12.755Z,97545.34
2023-04-22T02:12:15.471Z,97544.56
2023-04-22T02:15:18.225Z,97549.44
2023-04-22T02:18:20.931Z,97551.22
2023-04-22T02:21:23.737Z,97552.81
2023-04-22T02:24:27.841Z,97560.09
2023-04-22T02:27:30.598Z,97558.97
2023-04-22T02:30:33.281Z,97558.19
2023-04-22T02:33:36.437Z,97552.81
2023-04-22T02:36:39.227Z,97561.72
2023-04-22T02:39:43.239Z,97563.75
2023-04-22T02:42:45.883Z,97562.91
2023-04-22T02:45:48.572Z,97558.31
2023-04-22T02:48:51.312Z,97564.06
2023-04-22T02:51:53.990Z,97567.13
2023-04-22T02:54:57.981Z,97570.59
2023-04-22T02:58:00.672Z,97566.03
2023-04-22T03:01:03.619Z,97572.22
2023-04-22T03:04:06.366Z,97564.22
2023-04-22T03:07:09.246Z,97563.53
2023-04-22T03:10:13.389Z,97557.84
2023-04-22T03:13:16.308Z,97553.38
2023-04-22T03:16:19.277Z,97555.56
2023-04-22T03:19:22.013Z,97556.38
2023-04-22T03:22:24.723Z,97558.03
2023-04-22T03:25:28.786Z,97553.94
2023-04-22T03:28:31.537Z,97552.16
2023-04-22T03:31:34.376Z,97555.50
2023-04-22T03:34:37.480Z,97564.94
2023-04-22T03:37:40.777Z,97567.31
2023-04-22T03:40:44.967Z,97569.44
2023-04-22T03:43:47.755Z,97567.81
2023-04-22T03:46:50.631Z,97575.31
2023-04-22T03:49:53.863Z,97580.94
2023-04-22T03:52:56.647Z,97569.44
2023-04-22T03:56:00.863Z,97572.88
2023-04-22T03:59:03.608Z,97564.84
2023-04-22T04:02:07.751Z,97578.34
2023-04-22T04:05:12.160Z,97577.53
2023-04-22T04:08:15.096Z,97571.31
2023-04-22T04:11:19.244Z,97566.53
2023-04-22T04:14:22.758Z,97560.66
2023-04-22T04:17:26.070Z,97557.47
2023-04-22T04:20:28.919Z,97560.44
2023-04-22T04:23:32.206Z,97555.06
2023-04-22T04:26:36.434Z,97550.00
2023-04-22T04:29:39.778Z,97554.28
2023-04-22T04:32:43.010Z,97558.34
2023-04-22T04:35:45.911Z,97557.91
2023-04-22T04:38:48.844Z,97558.47
2023-04-22T04:41:55.094Z,97556.91
2023-04-22T04:44:59.540Z,97549.13
2023-04-22T04:48:02.686Z,97535.72
2023-04-22T04:51:06.240Z,97549.63
2023-04-22T04:54:08.996Z,97541.31
2023-04-22T04:57:13.111Z,97546.69
2023-04-22T05:00:16.104Z,97543.09
2023-04-22T05:03:19.038Z,97542.59
2023-04-22T05:06:21.940Z,97551.34
2023-04-22T05:09:24.664Z,97550.72
2023-04-22T05:12:28.843Z,97555.50
2023-04-22T05:15:32.021Z,97556.91
2023-04-22T05:18:34.762Z,97550.81
2023-04-22T05:21:37.434Z,97551.69
2023-04-22T05:24:40.115Z,97546.44
2023-04-22T05:27:44.226Z,97550.09
2023-04-22T05:30:46.875Z,97553.84
2023-04-22T05:33:49.594Z,97559.19
2023-04-22T05:36:52.591Z,97566.91
2023-04-22T05:39:55.258Z,97566.25
2023-04-22T05:42:59.484Z,97571.66
2023-04-22T05:46:02.268Z,97569.91
2023-04-22T05:49:05.039Z,97570.91
2023-04-22T05:52:07.949Z,97562.75
2023-04-22T05:55:10.958Z,97564.28
2023-04-22T05:58:15.061Z,97562.03
2023-04-22T06:01:17.848Z,97564.25
2023-04-22T06:04:21.078Z,97568.84
2023-04-22T06:07:24.196Z,97571.56
2023-04-22T06:10:27.023Z,97567.78
2023-04-22T06:13:31.067Z,97562.91
2023-04-22T06:16:34.738Z,97573.66
2023-04-22T06:19:38.349Z,97565.47
2023-04-22T06:22:41.357Z,97571.53
2023-04-22T06:25:44.594Z,97572.56
2023-04-22T06:28:48.657Z,97575.88
2023-04-22T06:31:51.712Z,97579.13
2023-04-22T06:34:54.388Z,97566.34
2023-04-22T06:37:57.080Z,97578.47
2023-04-22T06:40:59.756Z,97568.94
2023-04-22T06:44:03.877Z,97573.63
2023-04-22T06:47:06.759Z,97571.59
2023-04-22T06:50:10.726Z,97577.31
2023-04-22T06:53:13.572Z,97573.31
2023-04-22T06:56:16.573Z,97576.38
2023-04-22T06:59:20.679Z,97581.47
2023-04-22T07:02:23.910Z,97578.69
2023-04-22T07:05:26.887Z,97572.84
2023-04-22T07:08:29.728Z,97575.41
2023-04-22T07:11:33.013Z,97569.13
2023-04-22T07:14:38.070Z,97568.72
2023-04-22T07:17:41.116Z,97569.88
2023-04-22T07:20:44.033Z,97562.91
2023-04-22T07:23:46.655Z,97560.81
2023-04-22T07:26:49.464Z,97551.84
2023-04-22T07:29:53.454Z,97559.94
2023-04-22T07:32:56.317Z,97549.00
2023-04-22T07:35:59.134Z,97549.84
2023-04-22T07:39:01.756Z,97547.31
2023-04-22T07:42:04.647Z,97540.31
2023-04-22T07:45:09.877Z,97548.72
2023-04-22T07:48:12.849Z,97554.16
2023-04-22T07:51:15.836Z,97555.25
2023-04-22T07:54:18.793Z,97551.44
2023-04-22T07:57:22.702Z,97555.25
2023-04-22T08:00:26.925Z,97571.78
2023-04-22T08:03:29.866Z,97570.50
2023-04-22T08:06:32.944Z,97571.13
2023-04-22T08:09:35.841Z,97575.56
2023-04-22T08:12:38.604Z,97578.72
2023-04-22T08:15:42.755Z,97580.13
2023-04-22T08:18:45.605Z,97575.53
2023-04-22T08:21:48.506Z,97576.66
2023-04-22T08:24:51.267Z,97568.56
2023-04-22T08:27:54.081Z,97568.22
2023-04-22T08:30:58.270Z,97573.75
2023-04-22T08:34:00.924Z,97566.31
2023-04-22T08:37:03.888Z,97570.81
2023-04-22T08:40:08.191Z,97567.53
2023-04-22T08:43:11.011Z,97557.34
2023-04-22T08:46:16.772Z,97553.56
2023-04-22T08:49:20.473Z,97552.16
2023-04-22T08:52:23.365Z,97552.19
2023-04-22T08:55:26.883Z,97549.28
2023-04-22T08:58:31.016Z,97557.50
2023-04-22T09:01:36.075Z,97540.59
2023-04-22T09:04:38.902Z,97544.75
2023-04-22T09:07:42.500Z,97531.31
2023-04-22T09:10:45.237Z,97529.16
2023-04-22T09:13:48.273Z,97517.53
2023-04-22T09:16:52.391Z,97519.47
2023-04-22T09:19:59.146Z,97523.69
2023-04-22T09:23:04.934Z,97524.56
2023-04-22T09:26:09.110Z,97525.59
2023-04-22T09:29:15.837Z,97519.38
2023-04-22T09:32:20.809Z,97522.38
2023-04-22T09:35:31.913Z,97523.09
2023-04-22T09:38:34.555Z,97523.38
2023-04-22T09:41:38.759Z,97513.75
2023-04-22T09:44:41.732Z,97518.00
2023-04-22T09:47:47.627Z,97518.06
2023-04-22T09:50:51.777Z,97515.53
2023-04-22T09:54:08.935Z,97505.78
2023-04-22T09:57:15.194Z,97510.16
2023-04-22T10:00:18.689Z,97502.09
2023-04-22T10:03:23.023Z,97505.56
2023-04-22T10:06:25.875Z,97490.38
2023-04-22T10:09:28.682Z,97486.38
2023-04-22T10:12:35.833Z,97486.31
2023-04-22T10:15:41.485Z,97481.94
2023-04-22T10:18:46.334Z,97484.63
2023-04-22T10:21:51.327Z,97484.66
2023-04-22T10:24:56.078Z,97484.06
2023-04-22T10:28:04.321Z,97481.31
2023-04-22T10:31:08.212Z,97476.94
2023-04-22T10:34:15.319Z,97465.94
2023-04-22T10:37:20.767Z,97466.91
2023-04-22T10:40:23.873Z,97457.75
2023-04-22T10:43:42.267Z,97458.19
2023-04-22T10:47:01.656Z,97451.38
2023-04-22T10:50:18.880Z,97457.31
2023-04-22T10:53:37.669Z,97451.81
2023-04-22T10:57:04.578Z,97446.06
2023-04-22T11:00:52.541Z,97453.84
2023-04-22T11:04:23.369Z,97431.13
2023-04-22T11:07:35.720Z,97449.03
2023-04-22T11:10:44.159Z,97440.38
2023-04-22T11:13:50.602Z,97452.25
2023-04-22T11:16:53.960Z,97448.34
2023-04-22T11:19:57.457Z,97449.22
2023-04-22T11:23:01.553Z,97450.47
2023-04-22T11:26:06.490Z,97459.72
2023-04-22T11:29:09.784Z,97438.94
2023-04-22T11:32:12.933Z,97437.59
2023-04-22T11:35:22.034Z,97435.59
2023-04-22T11:38:26.300Z,97422.47
2023-04-22T11:41:29.973Z,97442.09
2023-04-22T11:44:32.826Z,97435.47
2023-04-22T11:47:36.606Z,97427.53
2023-04-22T11:50:41.157Z,97432.78
2023-04-22T11:53:52.318Z,97428.81
2023-04-22T11:56:55.658Z,97431.75
2023-04-22T11:59:59.878Z,97425.66
2023-04-22T12:03:04.720Z,97427.94
2023-04-22T12:06:07.784Z,97435.03
2023-04-22T12:09:14.106Z,97429.63
2023-04-22T12:12:16.777Z,97427.34
2023-04-22T12:15:19.414Z,97421.06
2023-04-22T12:18:30.018Z,97428.75
2023-04-22T12:21:32.771Z,97427.47
2023-04-22T12:24:36.800Z,97432.13
2023-04-22T12:27:39.392Z,97423.59
2023-04-22T12:30:42.248Z,97421.53
2023-04-22T12:33:46.199Z,97437.50
2023-04-22T12:36:48.914Z,97417.84
2023-04-22T12:39:52.873Z,97417.13
2023-04-22T12:42:55.574Z,97412.81
2023-04-22T12:45:58.209Z,97412.63
2023-04-22T12:49:01.241Z,97418.25
2023-04-22T12:52:03.838Z,97420.00
2023-04-22T12:55:09.117Z,97418.78
2023-04-22T12:58:12.252Z,97420.81
2023-04-22T13:01:14.936Z,97422.22
2023-04-22T13:04:19.874Z,97432.44
2023-04-22T13:07:22.685Z,97432.28
2023-04-22T13:10:28.262Z,97425.81
2023-04-22T13:13:30.911Z,97436.47
2023-04-22T13:16:33.517Z,97428.09
2023-04-22T13:19:36.396Z,97427.16
2023-04-22T13:22:40.472Z,97433.03
2023-04-22T13:25:44.462Z,97433.75
2023-04-22T13:28:47.056Z,97430.00
2023-04-22T13:31:49.718Z,97435.81
2023-04-22T13:34:52.576Z,97432.13
2023-04-22T13:37:55.288Z,97442.38
2023-04-22T13:41:01.198Z,97431.31
2023-04-22T13:44:05.423Z,97434.59
2023-04-22T13:47:08.054Z,97431.84
2023-04-22T13:50:11.631Z,97431.00
2023-04-22T13:53:14.516Z,97426.19
2023-04-22T13:56:18.503Z,97425.41
2023-04-22T13:59:21.166Z,97427.22
2023-04-22T14:02:23.936Z,97429.03
2023-04-22T14:05:26.935Z,97422.66
2023-04-22T14:08:29.814Z,97420.22
2023-04-22T14:11:33.870Z,97416.81
2023-04-22T14:14:36.535Z,97415.69
2023-04-22T14:17:39.316Z,97415.19
2023-04-22T14:20:43.073Z,97411.81
2023-04-22T14:23:45.826Z,97413.25
2023-04-22T14:26:49.798Z,97416.84
2023-04-22T14:29:53.212Z,97417.84
2023-04-22T14:32:55.893Z,97419.69
2023-04-22T14:35:58.610Z,97419.03
2023-04-22T14:39:01.258Z,97416.56
2023-04-22T14:42:05.778Z,97414.19
2023-04-22T14:45:09.216Z,97410.50
2023-04-22T14:48:11.891Z,97405.38
2023-04-22T14:51:14.539Z,97415.75
2023-04-22T14:54:17.188Z,97416.00
2023-04-22T14:57:21.151Z,97411.59
2023-04-22T15:00:23.991Z,97416.25
2023-04-22T15:03:26.904Z,97406.25
2023-04-22T15:06:29.641Z,97422.72
2023-04-22T15:09:32.843Z,97409.75
2023-04-22T15:12:36.841Z,97415.91
2023-04-22T15:15:39.575Z,97413.41
2023-04-22T15:18:43.107Z,97415.41
2023-04-22T15:21:46.714Z,97408.53
2023-04-22T15:24:49.317Z,97414.59
2023-04-22T15:27:56.398Z,97418.94
2023-04-22T15:30:59.033Z,97420.06
2023-04-22T15:34:01.663Z,97418.81
2023-04-22T15:37:04.439Z,97420.91
2023-04-22T15:40:09.947Z,97414.53
2023-04-22T15:43:13.912Z,97418.31
2023-04-22T15:46:16.541Z,97407.78
2023-04-22T15:49:19.223Z,97417.44
2023-04-22T15:52:21.824Z,97413.16
2023-04-22T15:55:24.651Z,97414.63
2023-04-22T15:58:32.391Z,97414.72
2023-04-22T16:01:40.303Z,97416.31
2023-04-22T16:04:43.303Z,97420.22
2023-04-22T16:07:46.325Z,97418.22
2023-04-22T16:10:49.010Z,97412.34
2023-04-22T16:13:52.983Z,97417.88
2023-04-22T16:16:55.748Z,97418.66
2023-04-22T16:19:58.503Z,97422.81
2023-04-22T16:23:01.241Z,97422.09
2023-04-22T16:26:05.584Z,97424.13
2023-04-22T16:29:09.557Z,97428.25
2023-04-22T16:32:12.360Z,97428.97
2023-04-22T16:35:14.950Z,97426.16
2023-04-22T16:38:17.646Z,97422.34
2023-04-22T16:41:21.536Z,97421.53
2023-04-22T16:44:25.659Z,97426.69
2023-04-22T16:47:28.353Z,97424.31
2023-04-22T16:50:31.035Z,97414.59
2023-04-22T16:53:33.771Z,97417.19
2023-04-22T16:56:37.463Z,97417.47
2023-04-22T16:59:41.637Z,97417.41
2023-04-22T17:02:44.660Z,97415.66
2023-04-22T17:05:47.287Z,97424.34
2023-04-22T17:08:49.978Z,97415.66
2023-04-22T17:11:52.611Z,97417.84
2023-04-22T17:14:56.545Z,97426.22
2023-04-22T17:17:59.268Z,97421.03
2023-04-22T17:21:01.933Z,97423.94
2023-04-22T17:24:05.827Z,97431.22
2023-04-22T17:27:08.528Z,97431.28
2023-04-22T17:30:13.447Z,97437.22
2023-04-22T17:33:16.237Z,97432.25
2023-04-22T17:36:20.081Z,97440.72
2023-04-22T17:39:22.778Z,97443.81
2023-04-22T17:42:38.905Z,97449.06
2023-04-22T17:45:46.814Z,97451.34
2023-04-22T17:48:49.427Z,97457.78
2023-04-22T17:51:52.019Z,97462.78
2023-04-22T17:54:54.722Z,97465.03
2023-04-22T17:57:57.364Z,97467.22
2023-04-22T18:01:01.392Z,97465.41
2023-04-22T18:04:04.580Z,97476.75
2023-04-22T18:07:07.311Z,97486.16
2023-04-22T18:10:11.641Z,97484.78
2023-04-22T18:13:14.470Z,97493.59
2023-04-22T18:16:18.545Z,97503.75
2023-04-22T18:19:21.302Z,97503.06
2023-04-22T18:22:25.145Z,97501.53
2023-04-22T18:25:28.195Z,97511.22
2023-04-22T18:28:30.836Z,97511.53
2023-04-22T18:31:34.806Z,97529.34
2023-04-22T18:34:37.609Z,97532.28
2023-04-22T18:37:40.231Z,97538.75
2023-04-22T18:40:42.827Z,97541.91
2023-04-22T18:43:47.081Z,97554.03
2023-04-22T18:46:52.938Z,97555.06
2023-04-22T18:49:55.561Z,97568.91
2023-04-22T18:52:58.157Z,97574.34
2023-04-22T18:56:00.911Z,97572.97
2023-04-22T18:59:03.558Z,97582.44
2023-04-22T19:02:08.363Z,97587.06
2023-04-22T19:05:13.992Z,97587.44
2023-04-22T19:08:17.163Z,97596.22
2023-04-22T19:11:20.119Z,97590.69
2023-04-22T19:14:22.751Z,97597.75
2023-04-22T19:17:27.214Z,97597.94
2023-04-22T19:20:29.984Z,97596.22
2023-04-22T19:23:32.642Z,97601.66
2023-04-22T19:26:35.533Z,97604.88
2023-04-22T19:29:38.568Z,97597.25
2023-04-22T19:32:43.094Z,97592.88
2023-04-22T19:35:46.239Z,97591.34
2023-04-22T19:38:48.948Z,97589.44
2023-04-22T19:41:51.770Z,97598.81
2023-04-22T19:44:54.749Z,97584.66
2023-04-22T19:47:59.920Z,97584.38
2023-04-22T19:51:04.417Z,97585.34
2023-04-22T19:54:08.355Z,97584.72
2023-04-22T19:57:12.815Z,97585.03
2023-04-22T20:00:16.418Z,97574.72
2023-04-22T20:03:22.585Z,97578.03
2023-04-22T20:06:25.707Z,97576.28
2023-04-22T20:09:29.015Z,97573.22
2023-04-22T20:12:32.231Z,97570.72
2023-04-22T20:15:35.289Z,97563.41
2023-04-22T20:18:39.848Z,97566.56
2023-04-22T20:21:42.922Z,97564.31
2023-04-22T20:24:46.654Z,97561.94
2023-04-22T20:27:49.659Z,97562.44
2023-04-22T20:30:52.664Z,97554.13
2023-04-22T20:33:57.253Z,97552.50
2023-04-22T20:37:02.066Z,97555.41
2023-04-22T20:40:08.187Z,97556.72
2023-04-22T20:43:11.226Z,97560.34
2023-04-22T20:46:14.136Z,97566.78
2023-04-22T20:49:18.417Z,97562.19
2023-04-22T20:52:21.118Z,97562.41
2023-04-22T20:55:24.019Z,97558.75
2023-04-22T20:58:28.021Z,97553.84
2023-04-22T21:01:31.386Z,97565.47
2023-04-22T21:04:36.354Z,97559.16
2023-04-22T21:07:40.684Z,97563.94
2023-04-22T21:10:44.026Z,97561.25
2023-04-22T21:13:47.472Z,97561.88
2023-04-22T21:16:56.274Z,97556.50
2023-04-22T21:20:02.676Z,97547.91
2023-04-22T21:23:07.773Z,97555.22
2023-04-22T21:26:11.384Z,97571.44
2023-04-22T21:29:14.663Z,97570.19
2023-04-22T21:32:20.102Z,97575.13
2023-04-22T21:35:24.648Z,97575.78
2023-04-22T21:38:27.516Z,97573.69
2023-04-22T21:41:30.253Z,97584.84
2023-04-22T21:44:33.120Z,97582.44
2023-04-22T21:47:35.940Z,97574.03
2023-04-22T21:50:39.980Z,97578.59
2023-04-22T21:53:42.774Z,97581.63
2023-04-22T21:56:45.610Z,97583.88
2023-04-22T21:59:48.298Z,97590.53
2023-04-22T22:02:52.437Z,97575.28
2023-04-22T22:05:56.796Z,97574.00
2023-04-22T22:08:59.678Z,97575.28
2023-04-22T22:12:02.923Z,97574.63
2023-04-22T22:15:08.558Z,97585.44
2023-04-22T22:18:11.300Z,97578.47
2023-04-22T22:21:15.269Z,97574.47
2023-04-22T22:24:18.016Z,97581.31
2023-04-22T22:27:20.776Z,97579.09
2023-04-22T22:30:23.456Z,97576.72
2023-04-22T22:33:26.232Z,97574.16
2023-04-22T22:36:30.303Z,97581.00
2023-04-22T22:39:33.128Z,97580.06
2023-04-22T22:42:36.117Z,97575.91
2023-04-22T22:45:38.933Z,97572.41
2023-04-22T22:48:41.766Z,97580.84
2023-04-22T22:51:45.935Z,97572.56
2023-04-22T22:54:49.936Z,97572.56
2023-04-22T22:57:52.602Z,97574.78
2023-04-22T23:00:55.392Z,97559.66
2023-04-22T23:03:58.397Z,97565.66
2023-04-22T23:07:02.644Z,97567.44
2023-04-22T23:10:06.451Z,97566.00
2023-04-22T23:13:09.152Z,97564.72
2023-04-22T23:16:12.097Z,97555.38
2023-04-22T23:19:16.983Z,97563.81
2023-04-22T23:22:21.579Z,97558.56
2023-04-22T23:25:25.066Z,97552.19
2023-04-22T23:28:28.372Z,97553.00
2023-04-22T23:31:33.104Z,97545.84
2023-04-22T23:34:36.682Z,97544.13
2023-04-22T23:37:44.457Z,97554.00
2023-04-22T23:40:47.281Z,97549.06
2023-04-22T23:43:50.064Z,97545.25
2023-04-22T23:46:52.936Z,97543.31
2023-04-22T23:49:55.785Z,97546.47
2023-04-22T23:52:59.865Z,97544.28
2023-04-22T23:56:03.032Z,97536.97
2023-04-22T23:59:07.237Z,97536.50
